sensor_id;sensor_type;location;lat;lon;timestamp;temperature;humidity
4453;DHT22;2239;48.152;11.584;2024-01-06T00:00:54;6.50;99.90
4453;DHT22;2239;48.152;11.584;2024-01-06T00:03:19;6.50;99.90
4453;DHT22;2239;48.152;11.584;2024-01-06T00:05:45;6.50;99.90
4453;DHT22;2239;48.152;11.584;2024-01-06T00:08:10;6.40;99.90
4453;DHT22;2239;48.152;11.584;2024-01-06T00:10:36;6.40;99.90
4453;DHT22;2239;48.152;11.584;2024-01-06T00:13:02;6.40;99.90
4453;DHT22;2239;48.152;11.584;2024-01-06T00:15:27;6.40;99.90
4453;DHT22;2239;48.152;11.584;2024-01-06T00:17:53;6.40;99.90
4453;DHT22;2239;48.152;11.584;2024-01-06T00:20:18;6.40;99.90
4453;DHT22;2239;48.152;11.584;2024-01-06T00:22:44;6.30;99.90
4453;DHT22;2239;48.152;11.584;2024-01-06T00:25:09;6.20;99.90
4453;DHT22;2239;48.152;11.584;2024-01-06T00:27:35;6.20;99.90
4453;DHT22;2239;48.152;11.584;2024-01-06T00:30:00;6.20;99.90
4453;DHT22;2239;48.152;11.584;2024-01-06T00:32:26;6.20;99.90
4453;DHT22;2239;48.152;11.584;2024-01-06T00:34:51;6.30;99.90
4453;DHT22;2239;48.152;11.584;2024-01-06T00:37:17;6.20;99.90
4453;DHT22;2239;48.152;11.584;2024-01-06T00:39:42;6.20;99.90
4453;DHT22;2239;48.152;11.584;2024-01-06T00:42:08;6.30;99.90
4453;DHT22;2239;48.152;11.584;2024-01-06T00:44:36;6.30;99.90
4453;DHT22;2239;48.152;11.584;2024-01-06T00:47:02;6.20;99.90
4453;DHT22;2239;48.152;11.584;2024-01-06T00:49:27;6.10;99.90
4453;DHT22;2239;48.152;11.584;2024-01-06T00:51:53;6.00;99.90
4453;DHT22;2239;48.152;11.584;2024-01-06T00:54:18;6.00;99.90
4453;DHT22;2239;48.152;11.584;2024-01-06T00:56:44;6.00;99.90
4453;DHT22;2239;48.152;11.584;2024-01-06T00:59:09;6.00;99.90
4453;DHT22;2239;48.152;11.584;2024-01-06T01:01:35;6.00;99.90
4453;DHT22;2239;48.152;11.584;2024-01-06T01:04:00;6.00;99.90
4453;DHT22;2239;48.152;11.584;2024-01-06T01:06:26;5.90;99.90
4453;DHT22;2239;48.152;11.584;2024-01-06T01:08:52;5.90;99.90
4453;DHT22;2239;48.152;11.584;2024-01-06T01:11:19;5.80;99.90
4453;DHT22;2239;48.152;11.584;2024-01-06T01:13:44;5.80;99.90
4453;DHT22;2239;48.152;11.584;2024-01-06T01:16:10;5.90;99.90
4453;DHT22;2239;48.152;11.584;2024-01-06T01:18:35;5.80;99.90
4453;DHT22;2239;48.152;11.584;2024-01-06T01:21:01;5.80;99.90
4453;DHT22;2239;48.152;11.584;2024-01-06T01:23:27;5.80;99.90
4453;DHT22;2239;48.152;11.584;2024-01-06T01:25:53;5.90;99.90
4453;DHT22;2239;48.152;11.584;2024-01-06T01:28:19;6.00;99.90
4453;DHT22;2239;48.152;11.584;2024-01-06T01:30:45;6.00;99.90
4453;DHT22;2239;48.152;11.584;2024-01-06T01:33:10;6.00;99.90
4453;DHT22;2239;48.152;11.584;2024-01-06T01:35:36;6.00;99.90
4453;DHT22;2239;48.152;11.584;2024-01-06T01:38:01;6.00;99.90
4453;DHT22;2239;48.152;11.584;2024-01-06T01:40:28;6.00;99.90
4453;DHT22;2239;48.152;11.584;2024-01-06T01:42:55;6.00;99.90
4453;DHT22;2239;48.152;11.584;2024-01-06T01:45:20;6.00;99.90
4453;DHT22;2239;48.152;11.584;2024-01-06T01:47:46;6.00;99.90
4453;DHT22;2239;48.152;11.584;2024-01-06T01:50:12;6.00;99.90
4453;DHT22;2239;48.152;11.584;2024-01-06T01:52:40;5.90;99.90
4453;DHT22;2239;48.152;11.584;2024-01-06T01:55:06;5.90;99.90
4453;DHT22;2239;48.152;11.584;2024-01-06T01:57:32;5.90;99.90
4453;DHT22;2239;48.152;11.584;2024-01-06T01:59:57;5.90;99.90
4453;DHT22;2239;48.152;11.584;2024-01-06T02:02:23;5.90;99.90
4453;DHT22;2239;48.152;11.584;2024-01-06T02:04:49;5.90;99.90
4453;DHT22;2239;48.152;11.584;2024-01-06T02:07:14;5.90;99.90
4453;DHT22;2239;48.152;11.584;2024-01-06T02:09:40;5.80;99.90
4453;DHT22;2239;48.152;11.584;2024-01-06T02:12:06;5.90;99.90
4453;DHT22;2239;48.152;11.584;2024-01-06T02:14:32;5.90;99.90
4453;DHT22;2239;48.152;11.584;2024-01-06T02:16:58;6.00;99.90
4453;DHT22;2239;48.152;11.584;2024-01-06T02:19:24;6.00;99.90
4453;DHT22;2239;48.152;11.584;2024-01-06T02:21:53;5.90;99.90
4453;DHT22;2239;48.152;11.584;2024-01-06T02:24:19;5.90;99.90
4453;DHT22;2239;48.152;11.584;2024-01-06T02:26:45;5.80;99.90
4453;DHT22;2239;48.152;11.584;2024-01-06T02:29:10;5.80;99.90
4453;DHT22;2239;48.152;11.584;2024-01-06T02:31:36;5.80;99.90
4453;DHT22;2239;48.152;11.584;2024-01-06T02:34:02;5.90;99.90
4453;DHT22;2239;48.152;11.584;2024-01-06T02:36:27;5.90;99.90
4453;DHT22;2239;48.152;11.584;2024-01-06T02:38:53;5.80;99.90
4453;DHT22;2239;48.152;11.584;2024-01-06T02:41:18;5.80;99.90
4453;DHT22;2239;48.152;11.584;2024-01-06T02:43:44;5.80;99.90
4453;DHT22;2239;48.152;11.584;2024-01-06T02:46:10;5.80;99.90
4453;DHT22;2239;48.152;11.584;2024-01-06T02:48:35;5.70;99.90
4453;DHT22;2239;48.152;11.584;2024-01-06T02:51:01;5.70;99.90
4453;DHT22;2239;48.152;11.584;2024-01-06T02:53:26;5.80;99.90
4453;DHT22;2239;48.152;11.584;2024-01-06T02:55:52;5.80;99.90
4453;DHT22;2239;48.152;11.584;2024-01-06T02:58:17;5.80;99.90
4453;DHT22;2239;48.152;11.584;2024-01-06T03:00:43;5.80;99.90
4453;DHT22;2239;48.152;11.584;2024-01-06T03:03:08;5.80;99.90
4453;DHT22;2239;48.152;11.584;2024-01-06T03:05:34;5.80;99.90
4453;DHT22;2239;48.152;11.584;2024-01-06T03:07:59;5.90;99.90
4453;DHT22;2239;48.152;11.584;2024-01-06T03:10:32;5.90;99.90
4453;DHT22;2239;48.152;11.584;2024-01-06T03:12:59;5.90;99.90
4453;DHT22;2239;48.152;11.584;2024-01-06T03:15:25;5.90;99.90
4453;DHT22;2239;48.152;11.584;2024-01-06T03:17:50;5.90;99.90
4453;DHT22;2239;48.152;11.584;2024-01-06T03:20:16;6.00;99.90
4453;DHT22;2239;48.152;11.584;2024-01-06T03:22:41;5.90;99.90
4453;DHT22;2239;48.152;11.584;2024-01-06T03:25:07;6.00;99.90
4453;DHT22;2239;48.152;11.584;2024-01-06T03:27:33;6.00;99.90
4453;DHT22;2239;48.152;11.584;2024-01-06T03:29:58;6.00;99.90
4453;DHT22;2239;48.152;11.584;2024-01-06T03:32:24;6.00;99.90
4453;DHT22;2239;48.152;11.584;2024-01-06T03:34:50;6.00;99.90
4453;DHT22;2239;48.152;11.584;2024-01-06T03:37:15;5.90;99.90
4453;DHT22;2239;48.152;11.584;2024-01-06T03:39:41;5.90;99.90
4453;DHT22;2239;48.152;11.584;2024-01-06T03:42:07;5.90;99.90
4453;DHT22;2239;48.152;11.584;2024-01-06T03:44:32;5.90;99.90
4453;DHT22;2239;48.152;11.584;2024-01-06T03:46:59;5.80;99.90
4453;DHT22;2239;48.152;11.584;2024-01-06T03:49:25;5.80;99.90
4453;DHT22;2239;48.152;11.584;2024-01-06T03:51:50;5.80;99.90
4453;DHT22;2239;48.152;11.584;2024-01-06T03:54:16;5.80;99.90
4453;DHT22;2239;48.152;11.584;2024-01-06T03:56:42;5.80;99.90
4453;DHT22;2239;48.152;11.584;2024-01-06T03:59:08;5.80;99.90
4453;DHT22;2239;48.152;11.584;2024-01-06T04:01:33;5.80;99.90
4453;DHT22;2239;48.152;11.584;2024-01-06T04:04:02;5.80;99.90
4453;DHT22;2239;48.152;11.584;2024-01-06T04:06:29;5.80;99.90
4453;DHT22;2239;48.152;11.584;2024-01-06T04:08:55;5.80;99.90
4453;DHT22;2239;48.152;11.584;2024-01-06T04:11:21;5.80;99.90
4453;DHT22;2239;48.152;11.584;2024-01-06T04:13:46;5.70;99.90
4453;DHT22;2239;48.152;11.584;2024-01-06T04:16:12;5.60;99.90
4453;DHT22;2239;48.152;11.584;2024-01-06T04:18:38;5.50;99.90
4453;DHT22;2239;48.152;11.584;2024-01-06T04:21:04;5.50;99.90
4453;DHT22;2239;48.152;11.584;2024-01-06T04:23:30;5.50;99.90
4453;DHT22;2239;48.152;11.584;2024-01-06T04:25:56;5.50;99.90
4453;DHT22;2239;48.152;11.584;2024-01-06T04:28:21;5.50;99.90
4453;DHT22;2239;48.152;11.584;2024-01-06T04:30:47;5.50;99.90
4453;DHT22;2239;48.152;11.584;2024-01-06T04:33:13;5.50;99.90
4453;DHT22;2239;48.152;11.584;2024-01-06T04:35:38;5.50;99.90
4453;DHT22;2239;48.152;11.584;2024-01-06T04:38:04;5.50;99.90
4453;DHT22;2239;48.152;11.584;2024-01-06T04:40:30;5.50;99.90
4453;DHT22;2239;48.152;11.584;2024-01-06T04:42:56;5.40;99.90
4453;DHT22;2239;48.152;11.584;2024-01-06T04:45:21;5.40;99.90
4453;DHT22;2239;48.152;11.584;2024-01-06T04:47:49;5.50;99.90
4453;DHT22;2239;48.152;11.584;2024-01-06T04:50:15;5.50;99.90
4453;DHT22;2239;48.152;11.584;2024-01-06T04:52:40;5.40;99.90
4453;DHT22;2239;48.152;11.584;2024-01-06T04:55:06;5.40;99.90
4453;DHT22;2239;48.152;11.584;2024-01-06T04:57:32;5.40;99.90
4453;DHT22;2239;48.152;11.584;2024-01-06T04:59:57;5.40;99.90
4453;DHT22;2239;48.152;11.584;2024-01-06T05:02:23;5.40;99.90
4453;DHT22;2239;48.152;11.584;2024-01-06T05:04:49;5.40;99.90
4453;DHT22;2239;48.152;11.584;2024-01-06T05:07:15;5.30;99.90
4453;DHT22;2239;48.152;11.584;2024-01-06T05:09:40;5.30;99.90
4453;DHT22;2239;48.152;11.584;2024-01-06T05:12:06;5.40;99.90
4453;DHT22;2239;48.152;11.584;2024-01-06T05:14:32;5.40;99.90
4453;DHT22;2239;48.152;11.584;2024-01-06T05:16:57;5.40;99.90
4453;DHT22;2239;48.152;11.584;2024-01-06T05:19:23;5.40;99.90
4453;DHT22;2239;48.152;11.584;2024-01-06T05:21:49;5.40;99.90
4453;DHT22;2239;48.152;11.584;2024-01-06T05:24:15;5.40;99.90
4453;DHT22;2239;48.152;11.584;2024-01-06T05:26:40;5.50;99.90
4453;DHT22;2239;48.152;11.584;2024-01-06T05:29:07;5.40;99.90
4453;DHT22;2239;48.152;11.584;2024-01-06T05:31:32;5.40;99.90
4453;DHT22;2239;48.152;11.584;2024-01-06T05:33:58;5.50;99.90
4453;DHT22;2239;48.152;11.584;2024-01-06T05:36:24;5.40;99.90
4453;DHT22;2239;48.152;11.584;2024-01-06T05:38:49;5.40;99.90
4453;DHT22;2239;48.152;11.584;2024-01-06T05:41:15;5.30;99.90
4453;DHT22;2239;48.152;11.584;2024-01-06T05:43:41;5.30;99.90
4453;DHT22;2239;48.152;11.584;2024-01-06T05:46:07;5.30;99.90
4453;DHT22;2239;48.152;11.584;2024-01-06T05:48:33;5.30;99.90
4453;DHT22;2239;48.152;11.584;2024-01-06T05:50:58;5.20;99.90
4453;DHT22;2239;48.152;11.584;2024-01-06T05:53:24;5.20;99.90
4453;DHT22;2239;48.152;11.584;2024-01-06T05:55:49;5.20;99.90
4453;DHT22;2239;48.152;11.584;2024-01-06T05:58:16;5.30;99.90
4453;DHT22;2239;48.152;11.584;2024-01-06T06:00:41;5.30;99.90
4453;DHT22;2239;48.152;11.584;2024-01-06T06:03:07;5.30;99.90
4453;DHT22;2239;48.152;11.584;2024-01-06T06:05:33;5.30;99.90
4453;DHT22;2239;48.152;11.584;2024-01-06T06:07:58;5.30;99.90
4453;DHT22;2239;48.152;11.584;2024-01-06T06:10:25;5.30;99.90
4453;DHT22;2239;48.152;11.584;2024-01-06T06:13:05;5.30;99.90
4453;DHT22;2239;48.152;11.584;2024-01-06T06:15:31;5.30;99.90
4453;DHT22;2239;48.152;11.584;2024-01-06T06:17:56;5.30;99.90
4453;DHT22;2239;48.152;11.584;2024-01-06T06:20:24;5.20;99.90
4453;DHT22;2239;48.152;11.584;2024-01-06T06:22:50;5.10;99.90
4453;DHT22;2239;48.152;11.584;2024-01-06T06:25:15;5.10;99.90
4453;DHT22;2239;48.152;11.584;2024-01-06T06:27:41;5.00;99.90
4453;DHT22;2239;48.152;11.584;2024-01-06T06:30:07;4.90;99.90
4453;DHT22;2239;48.152;11.584;2024-01-06T06:32:33;4.80;99.90
4453;DHT22;2239;48.152;11.584;2024-01-06T06:34:59;4.80;99.90
4453;DHT22;2239;48.152;11.584;2024-01-06T06:37:24;4.80;99.90
4453;DHT22;2239;48.152;11.584;2024-01-06T06:39:50;4.70;99.90
4453;DHT22;2239;48.152;11.584;2024-01-06T06:42:15;4.80;99.90
4453;DHT22;2239;48.152;11.584;2024-01-06T06:44:41;4.70;99.90
4453;DHT22;2239;48.152;11.584;2024-01-06T06:47:06;4.70;99.90
4453;DHT22;2239;48.152;11.584;2024-01-06T06:49:32;4.70;99.90
4453;DHT22;2239;48.152;11.584;2024-01-06T06:51:58;4.70;99.90
4453;DHT22;2239;48.152;11.584;2024-01-06T06:54:23;4.70;99.90
4453;DHT22;2239;48.152;11.584;2024-01-06T06:56:49;4.70;99.90
4453;DHT22;2239;48.152;11.584;2024-01-06T06:59:14;4.80;99.90
4453;DHT22;2239;48.152;11.584;2024-01-06T07:01:40;4.70;99.90
4453;DHT22;2239;48.152;11.584;2024-01-06T07:04:05;4.70;99.90
4453;DHT22;2239;48.152;11.584;2024-01-06T07:06:31;4.60;99.90
4453;DHT22;2239;48.152;11.584;2024-01-06T07:08:57;4.70;99.90
4453;DHT22;2239;48.152;11.584;2024-01-06T07:11:23;4.70;99.90
4453;DHT22;2239;48.152;11.584;2024-01-06T07:13:49;4.60;99.90
4453;DHT22;2239;48.152;11.584;2024-01-06T07:16:14;4.60;99.90
4453;DHT22;2239;48.152;11.584;2024-01-06T07:18:40;4.60;99.90
4453;DHT22;2239;48.152;11.584;2024-01-06T07:21:06;4.50;99.90
4453;DHT22;2239;48.152;11.584;2024-01-06T07:23:32;4.50;99.90
4453;DHT22;2239;48.152;11.584;2024-01-06T07:25:58;4.50;99.90
4453;DHT22;2239;48.152;11.584;2024-01-06T07:28:23;4.40;99.90
4453;DHT22;2239;48.152;11.584;2024-01-06T07:30:49;4.50;99.90
4453;DHT22;2239;48.152;11.584;2024-01-06T07:33:14;4.50;99.90
4453;DHT22;2239;48.152;11.584;2024-01-06T07:35:40;4.50;99.90
4453;DHT22;2239;48.152;11.584;2024-01-06T07:38:09;4.50;99.90
4453;DHT22;2239;48.152;11.584;2024-01-06T07:40:36;4.60;99.90
4453;DHT22;2239;48.152;11.584;2024-01-06T07:43:01;4.60;99.90
4453;DHT22;2239;48.152;11.584;2024-01-06T07:45:27;4.60;99.90
4453;DHT22;2239;48.152;11.584;2024-01-06T07:47:52;4.60;99.90
4453;DHT22;2239;48.152;11.584;2024-01-06T07:50:18;4.70;99.90
4453;DHT22;2239;48.152;11.584;2024-01-06T07:52:43;4.70;99.90
4453;DHT22;2239;48.152;11.584;2024-01-06T07:55:09;4.70;99.90
4453;DHT22;2239;48.152;11.584;2024-01-06T07:57:35;4.70;99.90
4453;DHT22;2239;48.152;11.584;2024-01-06T08:00:00;4.70;99.90
4453;DHT22;2239;48.152;11.584;2024-01-06T08:02:26;4.80;99.90
4453;DHT22;2239;48.152;11.584;2024-01-06T08:04:51;4.80;99.90
4453;DHT22;2239;48.152;11.584;2024-01-06T08:07:17;4.80;99.90
4453;DHT22;2239;48.152;11.584;2024-01-06T08:09:43;4.80;99.90
4453;DHT22;2239;48.152;11.584;2024-01-06T08:12:09;4.80;99.90
4453;DHT22;2239;48.152;11.584;2024-01-06T08:14:34;4.90;99.90
4453;DHT22;2239;48.152;11.584;2024-01-06T08:17:00;4.90;99.90
4453;DHT22;2239;48.152;11.584;2024-01-06T08:19:25;4.90;99.90
4453;DHT22;2239;48.152;11.584;2024-01-06T08:21:51;4.90;99.90
4453;DHT22;2239;48.152;11.584;2024-01-06T08:24:17;4.90;99.90
4453;DHT22;2239;48.152;11.584;2024-01-06T08:26:42;4.90;99.90
4453;DHT22;2239;48.152;11.584;2024-01-06T08:29:08;4.90;99.90
4453;DHT22;2239;48.152;11.584;2024-01-06T08:31:33;4.90;99.90
4453;DHT22;2239;48.152;11.584;2024-01-06T08:33:59;4.90;99.90
4453;DHT22;2239;48.152;11.584;2024-01-06T08:36:25;4.90;99.90
4453;DHT22;2239;48.152;11.584;2024-01-06T08:38:51;4.90;99.90
4453;DHT22;2239;48.152;11.584;2024-01-06T08:41:16;4.90;99.90
4453;DHT22;2239;48.152;11.584;2024-01-06T08:43:42;4.90;99.90
4453;DHT22;2239;48.152;11.584;2024-01-06T08:46:08;5.00;99.90
4453;DHT22;2239;48.152;11.584;2024-01-06T08:48:33;4.90;99.90
4453;DHT22;2239;48.152;11.584;2024-01-06T08:50:59;4.90;99.90
4453;DHT22;2239;48.152;11.584;2024-01-06T08:53:24;5.00;99.90
4453;DHT22;2239;48.152;11.584;2024-01-06T08:55:51;5.10;99.90
4453;DHT22;2239;48.152;11.584;2024-01-06T08:58:16;5.10;99.90
4453;DHT22;2239;48.152;11.584;2024-01-06T09:00:43;5.10;99.90
4453;DHT22;2239;48.152;11.584;2024-01-06T09:03:08;5.10;99.90
4453;DHT22;2239;48.152;11.584;2024-01-06T09:05:35;5.10;99.90
4453;DHT22;2239;48.152;11.584;2024-01-06T09:08:00;5.00;99.90
4453;DHT22;2239;48.152;11.584;2024-01-06T09:10:26;5.00;99.90
4453;DHT22;2239;48.152;11.584;2024-01-06T09:12:51;6.20;99.90
4453;DHT22;2239;48.152;11.584;2024-01-06T09:15:17;7.10;99.90
4453;DHT22;2239;48.152;11.584;2024-01-06T09:17:42;6.90;99.90
4453;DHT22;2239;48.152;11.584;2024-01-06T09:20:08;6.60;99.90
4453;DHT22;2239;48.152;11.584;2024-01-06T09:22:34;6.20;99.90
4453;DHT22;2239;48.152;11.584;2024-01-06T09:24:59;6.00;99.90
4453;DHT22;2239;48.152;11.584;2024-01-06T09:27:25;5.80;99.90
4453;DHT22;2239;48.152;11.584;2024-01-06T09:29:50;5.70;99.90
4453;DHT22;2239;48.152;11.584;2024-01-06T09:32:16;5.60;99.90
4453;DHT22;2239;48.152;11.584;2024-01-06T09:34:42;5.50;99.90
4453;DHT22;2239;48.152;11.584;2024-01-06T09:37:07;5.50;99.90
4453;DHT22;2239;48.152;11.584;2024-01-06T09:39:33;5.40;99.90
4453;DHT22;2239;48.152;11.584;2024-01-06T09:41:59;5.40;99.90
4453;DHT22;2239;48.152;11.584;2024-01-06T09:44:24;5.50;99.90
4453;DHT22;2239;48.152;11.584;2024-01-06T09:46:50;5.40;99.90
4453;DHT22;2239;48.152;11.584;2024-01-06T09:49:22;5.50;99.90
4453;DHT22;2239;48.152;11.584;2024-01-06T09:51:49;5.40;99.90
4453;DHT22;2239;48.152;11.584;2024-01-06T09:54:23;5.40;99.90
4453;DHT22;2239;48.152;11.584;2024-01-06T09:56:51;5.40;99.90
4453;DHT22;2239;48.152;11.584;2024-01-06T09:59:18;5.30;99.90
4453;DHT22;2239;48.152;11.584;2024-01-06T10:01:45;5.30;99.90
4453;DHT22;2239;48.152;11.584;2024-01-06T10:04:10;5.30;99.90
4453;DHT22;2239;48.152;11.584;2024-01-06T10:06:36;5.30;99.90
4453;DHT22;2239;48.152;11.584;2024-01-06T10:09:02;5.30;99.90
4453;DHT22;2239;48.152;11.584;2024-01-06T10:11:27;5.30;99.90
4453;DHT22;2239;48.152;11.584;2024-01-06T10:13:53;5.30;99.90
4453;DHT22;2239;48.152;11.584;2024-01-06T10:16:21;5.30;99.90
4453;DHT22;2239;48.152;11.584;2024-01-06T10:18:48;5.30;99.90
4453;DHT22;2239;48.152;11.584;2024-01-06T10:21:13;5.30;99.90
4453;DHT22;2239;48.152;11.584;2024-01-06T10:23:43;5.30;99.90
4453;DHT22;2239;48.152;11.584;2024-01-06T10:26:12;5.20;99.90
4453;DHT22;2239;48.152;11.584;2024-01-06T10:28:41;5.20;99.90
4453;DHT22;2239;48.152;11.584;2024-01-06T10:31:08;5.30;99.90
4453;DHT22;2239;48.152;11.584;2024-01-06T10:33:34;5.30;99.90
4453;DHT22;2239;48.152;11.584;2024-01-06T10:36:00;5.30;99.90
4453;DHT22;2239;48.152;11.584;2024-01-06T10:38:27;5.30;99.90
4453;DHT22;2239;48.152;11.584;2024-01-06T10:40:56;5.30;99.90
4453;DHT22;2239;48.152;11.584;2024-01-06T10:43:25;5.30;99.90
4453;DHT22;2239;48.152;11.584;2024-01-06T10:45:53;5.30;99.90
4453;DHT22;2239;48.152;11.584;2024-01-06T10:48:20;5.30;99.90
4453;DHT22;2239;48.152;11.584;2024-01-06T10:50:47;5.30;99.90
4453;DHT22;2239;48.152;11.584;2024-01-06T10:53:14;5.30;99.90
4453;DHT22;2239;48.152;11.584;2024-01-06T10:55:42;5.30;99.90
4453;DHT22;2239;48.152;11.584;2024-01-06T10:58:09;5.30;99.90
4453;DHT22;2239;48.152;11.584;2024-01-06T11:00:35;5.20;99.90
4453;DHT22;2239;48.152;11.584;2024-01-06T11:03:02;5.30;99.90
4453;DHT22;2239;48.152;11.584;2024-01-06T11:05:30;5.30;99.90
4453;DHT22;2239;48.152;11.584;2024-01-06T11:07:56;5.30;99.90
4453;DHT22;2239;48.152;11.584;2024-01-06T11:10:27;5.40;99.90
4453;DHT22;2239;48.152;11.584;2024-01-06T11:15:42;5.40;99.90
4453;DHT22;2239;48.152;11.584;2024-01-06T11:18:08;5.40;99.90
4453;DHT22;2239;48.152;11.584;2024-01-06T11:20:34;5.30;99.90
4453;DHT22;2239;48.152;11.584;2024-01-06T11:23:19;5.40;99.90
4453;DHT22;2239;48.152;11.584;2024-01-06T11:25:46;5.40;99.90
4453;DHT22;2239;48.152;11.584;2024-01-06T11:28:11;5.40;99.90
4453;DHT22;2239;48.152;11.584;2024-01-06T11:30:38;5.40;99.90
4453;DHT22;2239;48.152;11.584;2024-01-06T11:33:04;5.40;99.90
4453;DHT22;2239;48.152;11.584;2024-01-06T11:35:30;5.40;99.90
4453;DHT22;2239;48.152;11.584;2024-01-06T11:37:57;5.40;99.90
4453;DHT22;2239;48.152;11.584;2024-01-06T11:40:36;5.40;99.90
4453;DHT22;2239;48.152;11.584;2024-01-06T11:43:07;5.40;99.90
4453;DHT22;2239;48.152;11.584;2024-01-06T11:45:34;5.40;99.90
4453;DHT22;2239;48.152;11.584;2024-01-06T11:48:08;5.40;99.90
4453;DHT22;2239;48.152;11.584;2024-01-06T11:50:37;5.40;99.90
4453;DHT22;2239;48.152;11.584;2024-01-06T11:53:04;5.30;99.90
4453;DHT22;2239;48.152;11.584;2024-01-06T11:55:30;5.40;99.90
4453;DHT22;2239;48.152;11.584;2024-01-06T11:58:00;5.40;99.90
4453;DHT22;2239;48.152;11.584;2024-01-06T12:00:31;5.40;99.90
4453;DHT22;2239;48.152;11.584;2024-01-06T12:03:00;5.40;99.90
4453;DHT22;2239;48.152;11.584;2024-01-06T12:05:27;5.30;99.90
4453;DHT22;2239;48.152;11.584;2024-01-06T12:08:03;5.20;99.90
4453;DHT22;2239;48.152;11.584;2024-01-06T12:10:32;5.30;99.90
4453;DHT22;2239;48.152;11.584;2024-01-06T12:13:01;5.30;99.90
4453;DHT22;2239;48.152;11.584;2024-01-06T12:15:28;5.30;99.90
4453;DHT22;2239;48.152;11.584;2024-01-06T12:17:54;5.30;99.90
4453;DHT22;2239;48.152;11.584;2024-01-06T12:20:21;5.30;99.90
4453;DHT22;2239;48.152;11.584;2024-01-06T12:22:47;5.30;99.90
4453;DHT22;2239;48.152;11.584;2024-01-06T12:25:14;5.30;99.90
4453;DHT22;2239;48.152;11.584;2024-01-06T12:27:47;5.20;99.90
4453;DHT22;2239;48.152;11.584;2024-01-06T12:30:18;5.20;99.90
4453;DHT22;2239;48.152;11.584;2024-01-06T12:32:45;5.20;99.90
4453;DHT22;2239;48.152;11.584;2024-01-06T12:35:11;5.00;99.90
4453;DHT22;2239;48.152;11.584;2024-01-06T12:37:38;4.90;99.90
4453;DHT22;2239;48.152;11.584;2024-01-06T12:40:04;4.80;99.90
4453;DHT22;2239;48.152;11.584;2024-01-06T12:42:29;4.70;99.90
4453;DHT22;2239;48.152;11.584;2024-01-06T12:44:55;4.60;99.90
4453;DHT22;2239;48.152;11.584;2024-01-06T12:47:20;4.60;99.90
4453;DHT22;2239;48.152;11.584;2024-01-06T12:49:46;4.70;99.90
4453;DHT22;2239;48.152;11.584;2024-01-06T12:52:12;4.70;99.90
4453;DHT22;2239;48.152;11.584;2024-01-06T12:54:38;4.70;99.90
4453;DHT22;2239;48.152;11.584;2024-01-06T12:57:04;4.70;99.90
4453;DHT22;2239;48.152;11.584;2024-01-06T12:59:30;4.80;99.90
4453;DHT22;2239;48.152;11.584;2024-01-06T13:01:56;4.80;99.90
4453;DHT22;2239;48.152;11.584;2024-01-06T13:04:22;4.80;99.90
4453;DHT22;2239;48.152;11.584;2024-01-06T13:06:47;4.80;99.90
4453;DHT22;2239;48.152;11.584;2024-01-06T13:09:14;4.80;99.90
4453;DHT22;2239;48.152;11.584;2024-01-06T13:11:42;4.80;99.90
4453;DHT22;2239;48.152;11.584;2024-01-06T13:14:07;4.80;99.90
4453;DHT22;2239;48.152;11.584;2024-01-06T13:16:33;4.80;99.90
4453;DHT22;2239;48.152;11.584;2024-01-06T13:18:59;4.80;99.90
4453;DHT22;2239;48.152;11.584;2024-01-06T13:21:25;4.80;99.90
4453;DHT22;2239;48.152;11.584;2024-01-06T13:23:50;4.70;99.90
4453;DHT22;2239;48.152;11.584;2024-01-06T13:26:16;4.70;99.90
4453;DHT22;2239;48.152;11.584;2024-01-06T13:28:42;4.70;99.90
4453;DHT22;2239;48.152;11.584;2024-01-06T13:31:07;4.70;99.90
4453;DHT22;2239;48.152;11.584;2024-01-06T13:33:35;4.70;99.90
4453;DHT22;2239;48.152;11.584;2024-01-06T13:36:00;4.80;99.90
4453;DHT22;2239;48.152;11.584;2024-01-06T13:38:26;4.80;99.90
4453;DHT22;2239;48.152;11.584;2024-01-06T13:40:52;4.80;99.90
4453;DHT22;2239;48.152;11.584;2024-01-06T13:43:18;4.80;99.90
4453;DHT22;2239;48.152;11.584;2024-01-06T13:45:44;4.70;99.90
4453;DHT22;2239;48.152;11.584;2024-01-06T13:48:10;4.70;99.90
4453;DHT22;2239;48.152;11.584;2024-01-06T13:50:36;4.70;99.90
4453;DHT22;2239;48.152;11.584;2024-01-06T13:53:01;4.70;99.90
4453;DHT22;2239;48.152;11.584;2024-01-06T13:55:28;4.60;99.90
4453;DHT22;2239;48.152;11.584;2024-01-06T13:57:54;4.40;99.90
4453;DHT22;2239;48.152;11.584;2024-01-06T14:00:20;4.30;99.90
4453;DHT22;2239;48.152;11.584;2024-01-06T14:02:46;4.30;99.90
4453;DHT22;2239;48.152;11.584;2024-01-06T14:05:14;4.20;99.90
4453;DHT22;2239;48.152;11.584;2024-01-06T14:07:40;4.20;99.90
4453;DHT22;2239;48.152;11.584;2024-01-06T14:10:11;4.20;99.90
4453;DHT22;2239;48.152;11.584;2024-01-06T14:12:38;4.30;99.90
4453;DHT22;2239;48.152;11.584;2024-01-06T14:15:04;4.40;99.90
4453;DHT22;2239;48.152;11.584;2024-01-06T14:17:29;4.40;99.90
4453;DHT22;2239;48.152;11.584;2024-01-06T14:19:55;4.40;99.90
4453;DHT22;2239;48.152;11.584;2024-01-06T14:22:20;4.50;99.90
4453;DHT22;2239;48.152;11.584;2024-01-06T14:24:46;4.50;99.90
4453;DHT22;2239;48.152;11.584;2024-01-06T14:27:12;4.50;99.90
4453;DHT22;2239;48.152;11.584;2024-01-06T14:29:38;4.40;99.90
4453;DHT22;2239;48.152;11.584;2024-01-06T14:32:05;4.40;99.90
4453;DHT22;2239;48.152;11.584;2024-01-06T14:34:30;4.30;99.90
4453;DHT22;2239;48.152;11.584;2024-01-06T14:36:56;4.30;99.90
4453;DHT22;2239;48.152;11.584;2024-01-06T14:39:21;4.30;99.90
4453;DHT22;2239;48.152;11.584;2024-01-06T14:41:48;4.30;99.90
4453;DHT22;2239;48.152;11.584;2024-01-06T14:44:14;4.30;99.90
4453;DHT22;2239;48.152;11.584;2024-01-06T14:46:40;4.20;99.90
4453;DHT22;2239;48.152;11.584;2024-01-06T14:49:10;4.30;99.90
4453;DHT22;2239;48.152;11.584;2024-01-06T14:51:36;4.20;99.90
4453;DHT22;2239;48.152;11.584;2024-01-06T14:54:01;4.20;99.90
4453;DHT22;2239;48.152;11.584;2024-01-06T14:56:27;4.20;99.90
4453;DHT22;2239;48.152;11.584;2024-01-06T14:58:53;4.10;99.90
4453;DHT22;2239;48.152;11.584;2024-01-06T15:01:18;4.10;99.90
4453;DHT22;2239;48.152;11.584;2024-01-06T15:03:44;4.10;99.90
4453;DHT22;2239;48.152;11.584;2024-01-06T15:06:10;4.00;99.90
4453;DHT22;2239;48.152;11.584;2024-01-06T15:08:35;4.00;99.90
4453;DHT22;2239;48.152;11.584;2024-01-06T15:11:01;3.90;99.90
4453;DHT22;2239;48.152;11.584;2024-01-06T15:13:28;4.00;99.90
4453;DHT22;2239;48.152;11.584;2024-01-06T15:15:53;4.00;99.90
4453;DHT22;2239;48.152;11.584;2024-01-06T15:18:19;3.90;99.90
4453;DHT22;2239;48.152;11.584;2024-01-06T15:20:46;4.00;99.90
4453;DHT22;2239;48.152;11.584;2024-01-06T15:23:12;4.00;99.90
4453;DHT22;2239;48.152;11.584;2024-01-06T15:25:37;4.00;99.90
4453;DHT22;2239;48.152;11.584;2024-01-06T15:28:03;4.00;99.90
4453;DHT22;2239;48.152;11.584;2024-01-06T15:30:29;4.00;99.90
4453;DHT22;2239;48.152;11.584;2024-01-06T15:32:54;4.00;99.90
4453;DHT22;2239;48.152;11.584;2024-01-06T15:35:20;3.90;99.90
4453;DHT22;2239;48.152;11.584;2024-01-06T15:37:45;3.90;99.90
4453;DHT22;2239;48.152;11.584;2024-01-06T15:40:12;3.90;99.90
4453;DHT22;2239;48.152;11.584;2024-01-06T15:42:39;3.90;99.90
4453;DHT22;2239;48.152;11.584;2024-01-06T15:45:05;3.90;99.90
4453;DHT22;2239;48.152;11.584;2024-01-06T15:47:31;3.90;99.90
4453;DHT22;2239;48.152;11.584;2024-01-06T15:49:56;3.90;99.90
4453;DHT22;2239;48.152;11.584;2024-01-06T15:52:22;3.90;99.90
4453;DHT22;2239;48.152;11.584;2024-01-06T15:54:48;3.90;99.90
4453;DHT22;2239;48.152;11.584;2024-01-06T15:57:14;3.90;99.90